createdAt,value
2022-10-02T00:00:38.208Z,14.71
2022-10-02T00:03:32.355Z,14.71
2022-10-02T00:06:14.972Z,14.69
2022-10-02T00:08:45.132Z,14.67
2022-10-02T00:11:31.734Z,14.63
2022-10-02T00:14:04.397Z,14.57
2022-10-02T00:17:02.034Z,14.55
2022-10-02T00:19:30.042Z,14.56
2022-10-02T00:22:26.203Z,14.56
2022-10-02T00:25:34.500Z,14.55
2022-10-02T00:28:20.927Z,14.53
2022-10-02T00:31:15.592Z,14.55
2022-10-02T00:34:21.783Z,14.53
2022-10-02T00:37:37.247Z,14.52
2022-10-02T00:40:42.618Z,14.46
2022-10-02T00:43:45.545Z,14.43
2022-10-02T00:46:22.004Z,14.36
2022-10-02T00:49:37.471Z,14.35
2022-10-02T00:52:40.240Z,14.34
2022-10-02T00:55:47.344Z,14.33
2022-10-02T00:58:48.975Z,14.35
2022-10-02T01:01:22.712Z,14.41
2022-10-02T01:03:56.512Z,14.35
2022-10-02T01:06:28.290Z,14.29
2022-10-02T01:08:56.447Z,14.27
2022-10-02T01:11:27.092Z,14.25
2022-10-02T01:13:55.216Z,14.27
2022-10-02T01:16:23.724Z,14.26
2022-10-02T01:18:52.155Z,14.27
2022-10-02T01:21:36.285Z,14.27
2022-10-02T01:24:22.467Z,14.29
2022-10-02T01:26:50.744Z,14.25
2022-10-02T01:29:18.828Z,14.21
2022-10-02T01:31:46.798Z,14.18
2022-10-02T01:34:15.555Z,14.17
2022-10-02T01:36:43.961Z,14.18
2022-10-02T01:39:12.289Z,14.20
2022-10-02T01:41:44.967Z,14.21
2022-10-02T01:44:14.888Z,14.22
2022-10-02T01:47:09.989Z,14.21
2022-10-02T01:50:10.955Z,14.18
2022-10-02T01:53:17.669Z,14.19
2022-10-02T01:56:08.108Z,14.21
2022-10-02T01:59:21.052Z,14.23
2022-10-02T02:02:11.320Z,14.19
2022-10-02T02:05:00.762Z,14.17
2022-10-02T02:07:56.378Z,14.13
2022-10-02T02:10:39.789Z,14.17
2022-10-02T02:13:58.963Z,14.14
2022-10-02T02:16:41.762Z,14.13
2022-10-02T02:19:37.484Z,14.09
2022-10-02T02:22:17.575Z,14.03
2022-10-02T02:24:56.962Z,14.03
2022-10-02T02:27:31.700Z,13.99
2022-10-02T02:30:07.205Z,13.93
2022-10-02T02:32:41.495Z,13.89
2022-10-02T02:35:31.750Z,13.87
2022-10-02T02:38:12.447Z,13.87
2022-10-02T02:40:45.564Z,13.92
2022-10-02T02:43:24.111Z,13.95
2022-10-02T02:46:05.945Z,13.97
2022-10-02T02:48:46.341Z,13.96
2022-10-02T02:51:22.740Z,13.91
2022-10-02T02:54:12.890Z,13.90
2022-10-02T02:56:45.764Z,13.89
2022-10-02T02:59:14.926Z,13.90
2022-10-02T03:01:43.145Z,13.91
2022-10-02T03:04:15.551Z,13.91
2022-10-02T03:06:49.384Z,13.95
2022-10-02T03:09:21.747Z,13.93
2022-10-02T03:12:05.085Z,13.90
2022-10-02T03:15:10.322Z,13.87
2022-10-02T03:18:05.575Z,13.82
2022-10-02T03:21:00.541Z,13.77
2022-10-02T03:23:44.255Z,13.74
2022-10-02T03:26:58.977Z,13.71
2022-10-02T03:29:49.492Z,13.75
2022-10-02T03:32:19.013Z,13.75
2022-10-02T03:34:49.888Z,13.77
2022-10-02T03:37:18.491Z,13.83
2022-10-02T03:39:46.490Z,13.90
2022-10-02T03:42:16.511Z,13.95
2022-10-02T03:44:44.723Z,14.01
2022-10-02T03:47:12.709Z,14.01
2022-10-02T03:49:40.927Z,13.94
2022-10-02T03:52:19.774Z,13.90
2022-10-02T03:54:53.724Z,13.91
2022-10-02T03:57:25.724Z,13.91
2022-10-02T04:00:09.047Z,13.92
2022-10-02T04:02:51.455Z,13.96
2022-10-02T04:05:43.170Z,14.02
2022-10-02T04:08:16.684Z,13.98
2022-10-02T04:11:12.018Z,13.94
2022-10-02T04:13:47.308Z,13.89
2022-10-02T04:16:33.442Z,13.83
2022-10-02T04:19:19.083Z,13.77
2022-10-02T04:22:08.191Z,13.73
2022-10-02T04:25:07.012Z,13.67
2022-10-02T04:27:42.346Z,13.62
2022-10-02T04:30:18.348Z,13.61
2022-10-02T04:32:47.599Z,13.59
2022-10-02T04:35:32.336Z,13.63
2022-10-02T04:38:29.100Z,13.65
2022-10-02T04:41:40.951Z,13.61
2022-10-02T04:44:31.358Z,13.58
2022-10-02T04:47:12.299Z,13.65
2022-10-02T04:50:19.188Z,13.68
2022-10-02T04:53:12.390Z,13.72
2022-10-02T04:56:17.444Z,13.72
2022-10-02T04:59:07.852Z,13.67
2022-10-02T05:02:03.718Z,13.59
2022-10-02T05:05:00.576Z,13.59
2022-10-02T05:07:47.977Z,13.65
2022-10-02T05:10:57.927Z,13.72
2022-10-02T05:14:02.466Z,13.73
2022-10-02T05:16:54.501Z,13.73
2022-10-02T05:20:00.691Z,13.72
2022-10-02T05:23:06.835Z,13.72
2022-10-02T05:26:03.589Z,13.65
2022-10-02T05:29:07.593Z,13.58
2022-10-02T05:32:20.851Z,13.56
2022-10-02T05:35:13.674Z,13.62
2022-10-02T05:38:09.687Z,13.51
2022-10-02T05:41:01.432Z,13.45
2022-10-02T05:43:54.824Z,13.52
2022-10-02T05:46:31.878Z,13.50
2022-10-02T05:49:44.835Z,13.47
2022-10-02T05:52:40.594Z,13.52
2022-10-02T05:55:29.192Z,13.47
2022-10-02T05:58:43.801Z,13.41
2022-10-02T06:01:35.568Z,13.35
2022-10-02T06:04:27.790Z,13.35
2022-10-02T06:07:07.214Z,13.32
2022-10-02T06:09:45.450Z,13.30
2022-10-02T06:12:26.817Z,13.29
2022-10-02T06:15:04.187Z,13.27
2022-10-02T06:17:42.960Z,13.31
2022-10-02T06:20:25.902Z,13.31
2022-10-02T06:23:20.507Z,13.30
2022-10-02T06:26:03.404Z,13.30
2022-10-02T06:28:44.317Z,13.31
2022-10-02T06:31:47.565Z,13.30
2022-10-02T06:34:15.740Z,13.27
2022-10-02T06:36:55.775Z,13.26
2022-10-02T06:39:35.468Z,13.27
2022-10-02T06:42:35.768Z,13.30
2022-10-02T06:45:41.166Z,13.33
2022-10-02T06:48:43.316Z,13.34
2022-10-02T06:51:38.208Z,13.36
2022-10-02T06:54:19.210Z,13.42
2022-10-02T06:57:20.885Z,13.42
2022-10-02T07:00:16.507Z,13.44
2022-10-02T07:03:31.087Z,13.45
2022-10-02T07:06:12.235Z,13.51
2022-10-02T07:09:29.511Z,13.57
2022-10-02T07:11:57.380Z,13.64
2022-10-02T07:14:37.968Z,13.65
2022-10-02T07:17:30.572Z,13.70
2022-10-02T07:20:29.715Z,13.77
2022-10-02T07:23:18.961Z,13.76
2022-10-02T07:26:15.533Z,13.78
2022-10-02T07:29:03.595Z,13.89
2022-10-02T07:32:03.925Z,13.94
2022-10-02T07:34:56.215Z,13.97
2022-10-02T07:37:40.466Z,14.10
2022-10-02T07:40:47.425Z,14.10
2022-10-02T07:43:30.589Z,14.14
2022-10-02T07:46:31.059Z,14.13
2022-10-02T07:49:21.386Z,14.13
2022-10-02T07:52:20.834Z,14.16
2022-10-02T07:55:16.098Z,14.20
2022-10-02T07:58:35.701Z,14.29
2022-10-02T08:01:14.330Z,14.29
2022-10-02T08:03:56.848Z,14.35
2022-10-02T08:06:25.974Z,14.40
2022-10-02T08:09:24.827Z,14.40
2022-10-02T08:12:22.497Z,14.38
2022-10-02T08:14:55.892Z,14.38
2022-10-02T08:17:43.229Z,14.39
2022-10-02T08:20:31.501Z,14.44
2022-10-02T08:23:34.839Z,14.50
2022-10-02T08:26:35.645Z,14.54
2022-10-02T08:29:21.091Z,14.60
2022-10-02T08:31:53.405Z,14.63
2022-10-02T08:34:25.155Z,14.65
2022-10-02T08:37:20.269Z,14.70
2022-10-02T08:40:14.011Z,14.77
2022-10-02T08:43:27.988Z,14.82
2022-10-02T08:46:36.483Z,14.89
2022-10-02T08:49:29.218Z,14.90
2022-10-02T08:52:24.719Z,14.92
2022-10-02T08:55:44.511Z,14.95
2022-10-02T08:58:13.095Z,15.02
2022-10-02T09:01:14.072Z,15.04
2022-10-02T09:04:15.195Z,15.13
2022-10-02T09:07:31.392Z,15.15
2022-10-02T09:10:51.816Z,15.18
2022-10-02T09:14:07.296Z,15.17
2022-10-02T09:17:17.158Z,15.16
2022-10-02T09:20:29.026Z,15.22
2022-10-02T09:23:48.638Z,15.26
2022-10-02T09:26:35.116Z,15.29
2022-10-02T09:29:45.413Z,15.31
2022-10-02T09:32:43.405Z,15.37
2022-10-02T09:35:32.511Z,15.44
2022-10-02T09:38:42.367Z,15.55
2022-10-02T09:41:44.349Z,15.66
2022-10-02T09:45:01.430Z,15.71
2022-10-02T09:48:20.522Z,15.71
2022-10-02T09:51:27.825Z,15.86
2022-10-02T09:53:58.473Z,16.01
2022-10-02T09:57:01.847Z,16.09
2022-10-02T10:00:12.024Z,16.10
2022-10-02T10:03:13.873Z,16.03
2022-10-02T10:06:03.155Z,16.08
2022-10-02T10:09:35.276Z,16.10
2022-10-02T10:12:27.979Z,16.14
2022-10-02T10:15:45.807Z,16.12
2022-10-02T10:19:06.732Z,16.10
2022-10-02T10:22:12.540Z,16.05
2022-10-02T10:24:49.360Z,16.08
2022-10-02T10:27:43.256Z,16.14
2022-10-02T10:30:22.156Z,16.22
2022-10-02T10:33:30.225Z,16.32
2022-10-02T10:36:55.775Z,16.36
2022-10-02T10:39:43.404Z,16.32
2022-10-02T10:43:07.121Z,16.28
2022-10-02T10:46:02.506Z,16.20
2022-10-02T10:49:31.904Z,16.12
2022-10-02T10:52:31.406Z,16.00
2022-10-02T10:55:35.607Z,15.93
2022-10-02T10:58:54.166Z,15.89
2022-10-02T11:01:56.946Z,15.75
2022-10-02T11:05:01.216Z,15.59
2022-10-02T11:07:40.494Z,15.48
2022-10-02T11:10:21.039Z,15.45
2022-10-02T11:13:03.111Z,15.47
2022-10-02T11:15:56.520Z,15.49
2022-10-02T11:18:39.222Z,15.57
2022-10-02T11:21:44.688Z,15.64
2022-10-02T11:25:19.497Z,15.60
2022-10-02T11:28:26.836Z,15.62
2022-10-02T11:31:17.535Z,15.64
2022-10-02T11:34:32.654Z,15.65
2022-10-02T11:37:36.897Z,15.71
2022-10-02T11:41:04.547Z,15.78
2022-10-02T11:44:04.864Z,15.76
2022-10-02T11:47:18.831Z,15.79
2022-10-02T11:50:39.843Z,15.88
2022-10-02T11:53:35.269Z,15.99
2022-10-02T11:56:29.315Z,16.11
2022-10-02T11:59:31.841Z,16.19
2022-10-02T12:02:45.347Z,16.25
2022-10-02T12:05:53.491Z,16.33
2022-10-02T12:08:36.580Z,16.39
2022-10-02T12:11:34.671Z,16.41
2022-10-02T12:14:48.931Z,16.49
2022-10-02T12:17:53.254Z,16.69
2022-10-02T12:21:01.329Z,16.81
2022-10-02T12:24:20.545Z,17.01
2022-10-02T12:27:08.141Z,17.15
2022-10-02T12:30:08.481Z,17.29
2022-10-02T12:33:18.204Z,17.50
2022-10-02T12:36:11.989Z,17.63
2022-10-02T12:39:01.176Z,17.66
2022-10-02T12:42:11.682Z,17.65
2022-10-02T12:45:14.811Z,17.57
2022-10-02T12:48:02.840Z,17.48
2022-10-02T12:50:52.630Z,17.42
2022-10-02T12:53:40.690Z,17.42
2022-10-02T12:57:04.191Z,17.51
2022-10-02T12:59:58.420Z,17.86
2022-10-02T13:03:02.058Z,18.10
2022-10-02T13:06:13.331Z,18.31
2022-10-02T13:09:03.155Z,18.31
2022-10-02T13:11:52.503Z,18.18
2022-10-02T13:14:38.205Z,18.11
2022-10-02T13:17:22.121Z,18.06
2022-10-02T13:20:30.383Z,17.94
2022-10-02T13:23:32.114Z,17.81
2022-10-02T13:26:21.246Z,17.61
2022-10-02T13:29:20.928Z,17.50
2022-10-02T13:32:19.379Z,17.53
2022-10-02T13:35:00.160Z,17.67
2022-10-02T13:38:01.610Z,17.83
2022-10-02T13:40:42.547Z,18.08
2022-10-02T13:43:28.736Z,18.37
2022-10-02T13:46:37.439Z,18.51
2022-10-02T13:49:45.069Z,18.40
2022-10-02T13:52:33.150Z,18.21
2022-10-02T13:55:18.604Z,18.10
2022-10-02T13:58:34.028Z,18.02
2022-10-02T14:01:29.580Z,17.87
2022-10-02T14:04:40.389Z,17.64
2022-10-02T14:07:29.575Z,17.47
2022-10-02T14:10:11.408Z,17.43
2022-10-02T14:13:11.264Z,17.37
2022-10-02T14:16:02.538Z,17.32
2022-10-02T14:19:09.376Z,17.40
2022-10-02T14:21:47.432Z,17.52
2022-10-02T14:25:01.609Z,17.62
2022-10-02T14:27:51.359Z,17.88
2022-10-02T14:30:39.872Z,18.06
2022-10-02T14:33:47.103Z,18.21
2022-10-02T14:36:31.776Z,18.37
2022-10-02T14:39:11.383Z,18.43
2022-10-02T14:42:01.479Z,18.39
2022-10-02T14:44:57.367Z,18.34
2022-10-02T14:47:43.102Z,18.34
2022-10-02T14:50:39.552Z,18.47
2022-10-02T14:53:54.948Z,18.58
2022-10-02T14:56:51.106Z,18.53
2022-10-02T15:00:06.069Z,18.45
2022-10-02T15:03:33.540Z,18.34
2022-10-02T15:06:16.209Z,18.16
2022-10-02T15:08:54.986Z,18.05
2022-10-02T15:11:40.140Z,17.99
2022-10-02T15:14:48.026Z,17.98
2022-10-02T15:17:53.831Z,18.03
2022-10-02T15:20:31.202Z,18.16
2022-10-02T15:23:03.889Z,18.23
2022-10-02T15:25:59.643Z,18.36
2022-10-02T15:28:47.899Z,18.45
2022-10-02T15:31:37.535Z,18.36
2022-10-02T15:34:30.458Z,18.26
2022-10-02T15:37:21.933Z,18.18
2022-10-02T15:40:33.610Z,18.16
2022-10-02T15:43:41.755Z,18.22
2022-10-02T15:46:40.363Z,18.26
2022-10-02T15:49:18.809Z,18.25
2022-10-02T15:52:23.873Z,18.21
2022-10-02T15:55:25.227Z,18.11
2022-10-02T15:58:47.016Z,18.00
2022-10-02T16:01:54.793Z,17.87
2022-10-02T16:04:56.056Z,17.81
2022-10-02T16:07:54.692Z,17.76
2022-10-02T16:10:29.929Z,17.69
2022-10-02T16:13:54.340Z,17.65
2022-10-02T16:16:35.124Z,17.51
2022-10-02T16:19:30.416Z,17.41
2022-10-02T16:22:32.704Z,17.32
2022-10-02T16:25:18.471Z,17.17
2022-10-02T16:28:41.443Z,17.00
2022-10-02T16:31:53.567Z,16.82
2022-10-02T16:35:18.388Z,16.69
2022-10-02T16:38:18.447Z,16.61
2022-10-02T16:40:58.731Z,16.58
2022-10-02T16:43:46.464Z,16.53
2022-10-02T16:46:28.193Z,16.48
2022-10-02T16:49:22.221Z,16.48
2022-10-02T16:52:20.581Z,16.53
2022-10-02T16:55:26.928Z,16.40
2022-10-02T16:58:06.819Z,16.26
2022-10-02T17:00:51.626Z,16.19
2022-10-02T17:04:28.732Z,16.18
2022-10-02T17:07:31.275Z,15.98
2022-10-02T17:10:30.832Z,15.84
2022-10-02T17:13:12.188Z,15.74
2022-10-02T17:16:17.585Z,15.65
2022-10-02T17:19:01.924Z,15.68
2022-10-02T17:21:46.546Z,15.63
2022-10-02T17:24:14.319Z,15.50
2022-10-02T17:26:53.730Z,15.35
2022-10-02T17:29:59.501Z,15.11
2022-10-02T17:33:14.922Z,14.94
2022-10-02T17:35:54.719Z,14.68
2022-10-02T17:38:25.135Z,14.55
2022-10-02T17:41:11.186Z,14.43
2022-10-02T17:43:53.120Z,14.29
2022-10-02T17:46:51.951Z,14.19
2022-10-02T17:49:53.632Z,14.01
2022-10-02T17:52:52.273Z,13.86
2022-10-02T17:56:20.627Z,13.76
2022-10-02T17:59:30.600Z,13.57
2022-10-02T18:02:36.899Z,13.40
2022-10-02T18:05:50.854Z,13.33
2022-10-02T18:08:52.356Z,13.15
2022-10-02T18:11:51.621Z,13.05
2022-10-02T18:14:28.420Z,13.01
2022-10-02T18:17:15.575Z,12.97
2022-10-02T18:20:23.495Z,12.87
2022-10-02T18:23:23.337Z,12.79
2022-10-02T18:26:06.756Z,12.66
2022-10-02T18:28:56.634Z,12.60
2022-10-02T18:32:11.898Z,12.46
2022-10-02T18:35:48.059Z,12.28
2022-10-02T18:38:42.813Z,12.10
2022-10-02T18:41:32.684Z,12.04
2022-10-02T18:44:27.357Z,12.01
2022-10-02T18:47:52.551Z,11.86
2022-10-02T18:50:46.359Z,11.80
2022-10-02T18:54:00.759Z,11.72
2022-10-02T18:56:59.707Z,11.70
2022-10-02T18:59:43.699Z,11.70
2022-10-02T19:02:37.547Z,11.66
2022-10-02T19:05:35.031Z,11.62
2022-10-02T19:08:02.816Z,11.65
2022-10-02T19:10:30.605Z,11.60
2022-10-02T19:13:22.316Z,11.49
2022-10-02T19:15:53.955Z,11.41
2022-10-02T19:18:25.342Z,11.38
2022-10-02T19:20:55.712Z,11.31
2022-10-02T19:23:32.523Z,11.20
2022-10-02T19:26:17.919Z,11.15
2022-10-02T19:29:08.272Z,11.15
2022-10-02T19:31:39.651Z,11.06
2022-10-02T19:34:27.663Z,10.96
2022-10-02T19:37:04.277Z,10.90
2022-10-02T19:39:37.162Z,10.89
2022-10-02T19:42:45.587Z,10.88
2022-10-02T19:45:25.712Z,10.78
2022-10-02T19:48:18.790Z,10.74
2022-10-02T19:50:51.740Z,10.67
2022-10-02T19:53:23.885Z,10.63
2022-10-02T19:56:00.824Z,10.61
2022-10-02T19:58:45.868Z,10.61
2022-10-02T20:01:31.226Z,10.54
2022-10-02T20:04:03.560Z,10.46
2022-10-02T20:06:37.787Z,10.46
2022-10-02T20:09:18.291Z,10.51
2022-10-02T20:11:53.338Z,10.49
2022-10-02T20:14:30.871Z,10.37
2022-10-02T20:17:10.961Z,10.30
2022-10-02T20:19:51.909Z,10.29
2022-10-02T20:22:41.948Z,10.30
2022-10-02T20:25:28.499Z,10.30
2022-10-02T20:28:45.988Z,10.15
2022-10-02T20:31:22.413Z,10.09
2022-10-02T20:33:57.567Z,10.08
2022-10-02T20:36:38.024Z,10.11
2022-10-02T20:39:14.199Z,10.05
2022-10-02T20:41:55.720Z,9.98
2022-10-02T20:44:27.420Z,10.03
2022-10-02T20:47:29.007Z,10.00
2022-10-02T20:50:58.295Z,9.94
2022-10-02T20:54:06.717Z,9.85
2022-10-02T20:57:01.806Z,9.82
2022-10-02T21:00:00.380Z,9.79
2022-10-02T21:02:34.793Z,9.74
2022-10-02T21:05:43.518Z,9.70
2022-10-02T21:08:39.569Z,9.65
2022-10-02T21:11:29.120Z,9.73
2022-10-02T21:14:27.604Z,9.66
2022-10-02T21:17:29.724Z,9.62
2022-10-02T21:20:51.238Z,9.58
2022-10-02T21:23:32.946Z,9.50
2022-10-02T21:26:19.195Z,9.39
2022-10-02T21:29:16.436Z,9.25
2022-10-02T21:31:58.458Z,9.23
2022-10-02T21:35:13.947Z,9.23
2022-10-02T21:38:02.405Z,9.23
2022-10-02T21:40:57.772Z,9.18
2022-10-02T21:43:50.579Z,9.20
2022-10-02T21:47:18.747Z,9.27
2022-10-02T21:50:11.901Z,9.25
2022-10-02T21:53:04.078Z,9.34
2022-10-02T21:56:12.799Z,9.25
2022-10-02T21:59:06.451Z,9.19
2022-10-02T22:01:42.769Z,9.14
2022-10-02T22:05:19.994Z,9.15
2022-10-02T22:08:10.692Z,9.15
2022-10-02T22:10:38.654Z,9.09
2022-10-02T22:13:23.921Z,8.97
2022-10-02T22:16:11.061Z,8.92
2022-10-02T22:18:53.210Z,8.98
2022-10-02T22:22:01.808Z,8.89
2022-10-02T22:24:55.608Z,8.72
2022-10-02T22:28:10.007Z,8.68
2022-10-02T22:30:56.054Z,8.73
2022-10-02T22:33:58.946Z,8.66
2022-10-02T22:36:42.141Z,8.61
2022-10-02T22:39:33.847Z,8.63
2022-10-02T22:42:10.881Z,8.69
2022-10-02T22:44:52.380Z,8.61
2022-10-02T22:47:50.672Z,8.63
2022-10-02T22:50:34.371Z,8.63
2022-10-02T22:53:40.721Z,8.47
2022-10-02T22:56:30.366Z,8.27
2022-10-02T22:59:38.961Z,8.17
2022-10-02T23:02:43.983Z,8.16
2022-10-02T23:05:31.096Z,8.08
2022-10-02T23:08:27.917Z,8.05
2022-10-02T23:11:14.577Z,8.15
2022-10-02T23:14:15.058Z,8.13
2022-10-02T23:16:51.954Z,8.14
2022-10-02T23:19:38.776Z,8.18
2022-10-02T23:22:22.428Z,8.25
2022-10-02T23:25:22.204Z,8.30
2022-10-02T23:28:04.087Z,8.16
2022-10-02T23:30:40.970Z,8.09
2022-10-02T23:33:29.222Z,8.10
2022-10-02T23:36:19.308Z,8.11
2022-10-02T23:38:58.174Z,8.05
2022-10-02T23:41:48.311Z,8.01
2022-10-02T23:44:42.919Z,8.00
2022-10-02T23:47:34.947Z,7.92
2022-10-02T23:50:23.026Z,7.95
2022-10-02T23:53:05.734Z,7.98
2022-10-02T23:55:59.533Z,7.98
2022-10-02T23:58:45.532Z,7.86
